Time;durP1;ratioP1;P1;durP2;ratioP2;P2;SDS_P1;SDS_P2;PMS_P1;PMS_P2;Temp;Humidity;BMP_temperature;BMP_pressure;BME280_temperature;BME280_humidity;BME280_pressure;Samples;Min_cycle;Max_cycle;Signal;HPM_P1;HPM_P2
2022/05/06 00:01:03;;;;;;;3.75;2.95;;;;;;;10.61;79.30;95218.97;5030472;28;20211;-73
2022/05/06 00:03:30;;;;;;;4.25;3.03;;;;;;;10.60;79.56;95214.66;5030831;28;20258;-74
2022/05/06 00:05:58;;;;;;;5.28;3.03;;;;;;;10.68;79.40;95222.00;5039028;28;20685;-73
2022/05/06 00:08:25;;;;;;;3.67;2.83;;;;;;;10.64;79.61;95223.75;5034839;28;20579;-73
2022/05/06 00:10:52;;;;;;;5.53;3.42;;;;;;;10.60;79.84;95228.19;5030392;28;20305;-73
2022/05/06 00:13:19;;;;;;;5.53;2.92;;;;;;;10.66;79.32;95226.94;5031033;28;20208;-73
2022/05/06 00:15:46;;;;;;;5.30;2.95;;;;;;;10.62;79.46;95225.19;5029826;28;20205;-74
2022/05/06 00:18:13;;;;;;;3.75;2.85;;;;;;;10.61;79.40;95229.81;5030660;28;20586;-74
2022/05/06 00:20:41;;;;;;;5.80;3.25;;;;;;;10.61;79.57;95229.81;5034705;28;20219;-74
2022/05/06 00:23:09;;;;;;;6.63;2.92;;;;;;;10.59;79.98;95231.22;5034630;28;20208;-74
2022/05/06 00:25:36;;;;;;;3.85;2.70;;;;;;;10.56;80.16;95232.63;5034348;28;20701;-74
2022/05/06 00:28:03;;;;;;;1.55;1.42;;;;;;;10.69;79.57;95220.91;5034690;28;20275;-73
2022/05/06 00:30:30;;;;;;;4.30;3.15;;;;;;;10.75;79.52;95232.41;5034096;28;20235;-75
2022/05/06 00:32:57;;;;;;;4.18;2.92;;;;;;;10.79;79.05;95225.25;5034347;28;20293;-74
2022/05/06 00:35:25;;;;;;;4.80;3.47;;;;;;;10.77;79.31;95242.94;5034244;28;20789;-74
2022/05/06 00:37:52;;;;;;;7.63;3.33;;;;;;;10.81;79.09;95243.88;5033843;28;20699;-74
2022/05/06 00:40:20;;;;;;;5.47;3.70;;;;;;;10.71;79.51;95238.75;5033785;28;20571;-74
2022/05/06 00:42:50;;;;;;;4.95;3.13;;;;;;;10.80;78.74;95231.44;5034969;28;20204;-73
2022/05/06 00:45:16;;;;;;;6.03;3.20;;;;;;;10.75;79.05;95228.91;5041608;28;20788;-73
2022/05/06 00:47:44;;;;;;;5.00;3.47;;;;;;;10.57;79.30;95230.72;5038590;28;20203;-74
2022/05/06 00:50:11;;;;;;;8.93;3.45;;;;;;;10.51;79.64;95242.81;5041694;28;20273;-73
2022/05/06 00:52:38;;;;;;;5.78;3.90;;;;;;;10.50;79.63;95238.53;5033876;28;20227;-74
2022/05/06 00:55:06;;;;;;;6.00;3.70;;;;;;;10.37;79.98;95240.22;5034123;28;20612;-74
2022/05/06 00:57:34;;;;;;;5.38;3.20;;;;;;;10.28;80.05;95242.06;5033818;28;20266;-74
2022/05/06 01:00:20;;;;;;;4.50;3.47;;;;;;;10.19;80.58;95243.94;5033534;28;20211;-74
2022/05/06 01:02:47;;;;;;;5.63;3.30;;;;;;;10.16;80.19;95242.59;5022778;28;20197;-74
2022/05/06 01:05:14;;;;;;;8.52;4.13;;;;;;;10.31;80.94;95242.25;5033432;28;20296;-74
2022/05/06 01:07:43;;;;;;;7.53;4.55;;;;;;;10.41;80.74;95238.47;5033369;28;20215;-74
2022/05/06 01:10:10;;;;;;;7.88;5.00;;;;;;;10.50;80.52;95244.75;5033103;28;20691;-74
2022/05/06 01:12:39;;;;;;;7.22;3.95;;;;;;;10.45;80.42;95236.72;5033668;28;20208;-74
2022/05/06 01:15:18;;;;;;;8.25;3.80;;;;;;;10.37;80.63;95240.22;5033023;28;20212;-74
2022/05/06 01:17:46;;;;;;;6.18;3.80;;;;;;;10.39;80.45;95232.56;5044777;28;20247;-73
2022/05/06 01:20:15;;;;;;;7.13;3.70;;;;;;;10.37;79.67;95239.41;5047278;28;20236;-73
2022/05/06 01:22:45;;;;;;;6.63;3.85;;;;;;;10.16;80.31;95244.50;5033324;28;20200;-73
2022/05/06 01:25:12;;;;;;;5.78;3.53;;;;;;;10.19;80.13;95247.44;5013904;28;20243;-73
2022/05/06 01:27:45;;;;;;;5.22;3.78;;;;;;;10.23;80.04;95239.50;5026266;28;20239;-74
2022/05/06 01:30:18;;;;;;;9.32;4.43;;;;;;;10.07;80.41;95239.03;5032116;28;20248;-74
2022/05/06 01:32:45;;;;;;;7.47;3.63;;;;;;;10.07;80.62;95243.66;5032854;28;20614;-73
2022/05/06 01:35:14;;;;;;;9.30;3.67;;;;;;;9.90;81.05;95231.59;5033111;28;20230;-73
2022/05/06 01:37:44;;;;;;;7.15;4.22;;;;;;;9.93;81.22;95230.19;5033233;28;20224;-74
2022/05/06 01:40:15;;;;;;;4.78;3.65;;;;;;;9.93;81.08;95230.19;5032955;28;20217;-73
2022/05/06 01:42:43;;;;;;;8.50;5.88;;;;;;;9.94;81.14;95235.31;5033177;28;20284;-74
2022/05/06 01:45:11;;;;;;;6.90;3.75;;;;;;;9.94;81.27;95239.91;5052650;28;20680;-74
2022/05/06 01:47:41;;;;;;;6.15;4.03;;;;;;;9.88;81.79;95239.22;5034028;28;20291;-74
2022/05/06 01:50:10;;;;;;;5.38;3.25;;;;;;;9.82;81.66;95226.16;5032505;28;20228;-74
2022/05/06 01:52:40;;;;;;;6.43;4.20;;;;;;;9.86;82.03;95230.63;5032608;28;20219;-72
2022/05/06 01:55:09;;;;;;;4.90;3.55;;;;;;;9.93;81.52;95225.59;5032722;28;20204;-75
2022/05/06 01:57:36;;;;;;;5.93;3.60;;;;;;;9.72;82.23;95219.06;5032763;28;20204;-73
2022/05/06 02:00:05;;;;;;;6.93;4.15;;;;;;;9.77;82.50;95231.66;5032407;28;20559;-73
2022/05/06 02:02:32;;;;;;;7.63;3.97;;;;;;;9.88;82.30;95233.81;5019749;28;20283;-75
2022/05/06 02:07:43;;;;;;;6.95;4.55;;;;;;;9.91;82.03;95235.91;5032491;28;20219;-73
2022/05/06 02:10:11;;;;;;;4.90;3.38;;;;;;;9.85;82.43;95239.03;5032103;28;20240;-74
2022/05/06 02:12:38;;;;;;;7.32;4.47;;;;;;;9.85;82.18;95234.44;5032320;28;20209;-73
2022/05/06 02:15:06;;;;;;;9.95;4.38;;;;;;;9.73;82.53;95249.63;5032458;28;20188;-73
2022/05/06 02:17:34;;;;;;;7.55;4.40;;;;;;;9.75;82.60;95253.63;5032042;28;20229;-73
2022/05/06 02:20:00;;;;;;;6.25;4.50;;;;;;;9.80;82.32;95242.69;5031732;28;20200;-73
2022/05/06 02:22:29;;;;;;;6.38;4.05;;;;;;;9.71;82.38;95247.22;5032153;28;20200;-73
2022/05/06 02:24:56;;;;;;;6.88;4.25;;;;;;;9.71;82.55;95246.41;5032350;28;20228;-73
2022/05/06 02:27:25;;;;;;;6.72;4.35;;;;;;;9.62;82.64;95246.34;5023918;28;20204;-73
2022/05/06 02:35:21;;;;;;;6.30;4.25;;;;;;;9.35;83.58;95246.44;5031996;28;20334;-73
2022/05/06 02:37:48;;;;;;;8.13;4.90;;;;;;;9.27;84.07;95239.84;5035888;28;20215;-73
2022/05/06 02:40:15;;;;;;;6.55;4.30;;;;;;;9.43;84.59;95238.38;5041470;28;20619;-73
2022/05/06 02:42:43;;;;;;;7.65;4.53;;;;;;;9.51;83.90;95237.69;5031112;28;20200;-73
2022/05/06 02:45:11;;;;;;;6.97;4.40;;;;;;;9.61;83.26;95233.94;5051653;28;20238;-74
2022/05/06 02:47:39;;;;;;;8.20;3.80;;;;;;;9.68;83.01;95239.72;5033843;28;20295;-73
2022/05/06 02:50:07;;;;;;;11.75;4.60;;;;;;;9.59;83.04;95238.84;5031321;28;20297;-73
2022/05/06 02:52:34;;;;;;;8.93;4.38;;;;;;;9.70;82.69;95236.72;5031344;28;20196;-73
2022/05/06 02:55:01;;;;;;;8.52;4.95;;;;;;;9.70;82.80;95232.13;5030577;28;20215;-74
2022/05/06 02:57:28;;;;;;;5.10;3.78;;;;;;;9.79;83.25;95241.09;5031086;28;20201;-74
2022/05/06 02:59:56;;;;;;;8.48;5.55;;;;;;;10.02;82.76;95238.38;5031775;28;20200;-73
2022/05/06 03:02:24;;;;;;;7.90;5.53;;;;;;;10.14;82.61;95235.88;5031226;28;20204;-73
2022/05/06 03:04:50;;;;;;;9.18;5.10;;;;;;;10.22;82.17;95237.91;5031484;28;20204;-73
2022/05/06 03:07:17;;;;;;;10.02;5.03;;;;;;;10.22;81.91;95235.19;5031485;28;20220;-74
2022/05/06 03:09:44;;;;;;;9.02;5.57;;;;;;;10.31;81.64;95236.03;5031404;28;20231;-73
2022/05/06 03:12:12;;;;;;;8.20;4.78;;;;;;;10.19;81.75;95246.63;5030772;28;20232;-74
2022/05/06 03:14:38;;;;;;;6.25;4.43;;;;;;;10.27;81.01;95243.16;5031340;28;20204;-73
2022/05/06 03:17:07;;;;;;;6.50;3.85;;;;;;;10.15;81.03;95243.69;5037346;28;20227;-73
2022/05/06 03:19:34;;;;;;;7.72;4.63;;;;;;;10.16;81.29;95239.09;5038619;28;20606;-73
2022/05/06 03:22:01;;;;;;;5.40;4.25;;;;;;;10.24;81.05;95243.81;5030542;28;20671;-73
2022/05/06 03:24:28;;;;;;;11.13;5.10;;;;;;;10.30;81.03;95235.22;5031629;28;20207;-73
2022/05/06 03:26:55;;;;;;;9.45;6.10;;;;;;;10.46;80.68;95243.75;5031053;28;20302;-74
2022/05/06 03:29:22;;;;;;;9.80;4.97;;;;;;;10.65;79.89;95248.94;5031130;28;20207;-73
2022/05/06 03:31:49;;;;;;;10.52;5.03;;;;;;;10.78;79.33;95249.97;5030393;28;20302;-74
2022/05/06 03:34:19;;;;;;;10.38;4.03;;;;;;;10.93;78.35;95252.25;5031139;28;20204;-74
2022/05/06 03:36:46;;;;;;;7.85;4.18;;;;;;;10.92;78.20;95256.06;5020008;28;20216;-74
2022/05/06 03:39:14;;;;;;;10.48;5.70;;;;;;;11.00;78.00;95252.56;5031107;28;20224;-73
2022/05/06 03:41:40;;;;;;;7.78;5.10;;;;;;;10.90;78.19;95255.56;5031102;28;20204;-73
2022/05/06 03:44:07;;;;;;;6.38;4.38;;;;;;;10.85;78.21;95271.97;5042441;28;20223;-74
2022/05/06 03:46:34;;;;;;;12.48;6.18;;;;;;;10.79;78.33;95274.03;5050546;28;20261;-73
2022/05/06 03:49:01;;;;;;;7.70;4.40;;;;;;;10.68;78.77;95268.06;5050178;28;20227;-74
2022/05/06 03:51:29;;;;;;;7.07;4.75;;;;;;;10.71;78.62;95282.09;5040694;28;20231;-74
2022/05/06 03:53:57;;;;;;;7.68;4.82;;;;;;;10.58;78.99;95275.66;5032408;28;20231;-74
2022/05/06 03:56:27;;;;;;;7.93;4.07;;;;;;;10.54;78.95;95271.97;5035193;28;20207;-74
2022/05/06 03:58:54;;;;;;;7.80;4.93;;;;;;;10.63;78.77;95280.97;5034889;28;20722;-73
2022/05/06 04:01:21;;;;;;;9.73;4.35;;;;;;;10.69;79.00;95277.78;5034866;28;20231;-74
2022/05/06 04:03:48;;;;;;;5.75;4.40;;;;;;;10.63;79.45;95281.78;5034462;28;20212;-74
2022/05/06 04:06:15;;;;;;;6.57;4.55;;;;;;;10.63;79.64;95279.06;5034496;28;20210;-74
2022/05/06 04:08:43;;;;;;;8.95;4.45;;;;;;;10.50;79.89;95282.66;5034752;28;20216;-73
2022/05/06 04:11:11;;;;;;;6.80;4.70;;;;;;;10.56;79.73;95281.41;5034960;28;20254;-73
2022/05/06 04:13:38;;;;;;;10.82;4.80;;;;;;;10.62;79.57;95282.88;5034953;28;20208;-73
2022/05/06 04:16:06;;;;;;;6.78;5.15;;;;;;;10.76;79.04;95279.28;5034222;28;20223;-74
2022/05/06 04:18:33;;;;;;;8.50;5.53;;;;;;;10.77;79.08;95276.25;5034437;28;20660;-73
2022/05/06 04:23:46;;;;;;;7.57;5.25;;;;;;;10.84;78.75;95286.63;5014542;28;20188;-74
2022/05/06 04:26:13;;;;;;;6.43;4.43;;;;;;;10.98;77.87;95285.41;5029600;28;20227;-74
2022/05/06 04:28:40;;;;;;;5.80;3.80;;;;;;;11.01;77.47;95281.28;5034202;28;20612;-73
2022/05/06 04:31:08;;;;;;;6.32;3.63;;;;;;;11.12;76.77;95282.59;5033996;28;20224;-74
2022/05/06 04:33:38;;;;;;;10.27;5.07;;;;;;;11.15;76.60;95292.00;5034031;28;20200;-74
2022/05/06 04:36:05;;;;;;;7.28;4.32;;;;;;;11.24;77.33;95296.34;5031205;28;20225;-74
2022/05/06 04:38:32;;;;;;;7.75;4.63;;;;;;;11.26;77.86;95304.16;5014311;28;20604;-74
2022/05/06 04:41:01;;;;;;;8.52;5.47;;;;;;;11.06;78.13;95305.56;5031056;28;20235;-73
2022/05/06 04:43:29;;;;;;;8.30;5.30;;;;;;;11.33;77.76;95308.03;5040440;28;20187;-74
2022/05/06 04:45:56;;;;;;;12.68;5.63;;;;;;;11.26;78.18;95304.16;5036429;28;20199;-75
2022/05/06 04:48:24;;;;;;;10.18;5.78;;;;;;;11.31;78.08;95307.53;5033993;28;20247;-74
2022/05/06 04:50:51;;;;;;;9.88;5.13;;;;;;;11.14;78.70;95301.25;5034107;28;20625;-74
2022/05/06 04:53:18;;;;;;;8.90;5.15;;;;;;;11.03;78.76;95301.53;5033722;28;20208;-74
2022/05/06 04:55:48;;;;;;;7.82;5.18;;;;;;;10.84;79.71;95309.13;5033463;28;20586;-74
2022/05/06 04:58:18;;;;;;;8.50;5.13;;;;;;;10.85;80.06;95310.72;5034263;28;20201;-74
2022/05/06 05:00:45;;;;;;;11.90;6.82;;;;;;;10.86;80.21;95311.50;5033786;28;20212;-74
2022/05/06 05:03:12;;;;;;;9.75;5.68;;;;;;;11.17;79.42;95317.72;5033340;28;20204;-74
2022/05/06 05:05:39;;;;;;;11.13;6.32;;;;;;;11.44;78.64;95311.25;5033001;28;20278;-74
2022/05/06 05:08:08;;;;;;;15.50;7.72;;;;;;;11.72;77.73;95317.19;5033741;28;20232;-74
2022/05/06 05:10:35;;;;;;;9.50;6.18;;;;;;;11.82;77.50;95327.75;5020745;28;20228;-74
2022/05/06 05:13:02;;;;;;;9.20;6.05;;;;;;;12.05;76.39;95325.69;5032734;28;20263;-74
2022/05/06 05:15:31;;;;;;;11.40;5.55;;;;;;;12.34;75.50;95327.75;5032794;28;20295;-74
2022/05/06 05:17:58;;;;;;;13.32;5.97;;;;;;;12.32;75.41;95319.13;5046122;28;20210;-76
2022/05/06 05:20:25;;;;;;;10.52;5.68;;;;;;;12.72;74.77;95320.50;5033520;28;20204;-76
2022/05/06 05:22:52;;;;;;;9.80;6.25;;;;;;;12.95;73.62;95314.84;5033540;28;20208;-74
2022/05/06 05:25:19;;;;;;;13.40;6.43;;;;;;;13.06;73.27;95316.09;5033455;28;20204;-74
2022/05/06 05:27:46;;;;;;;10.18;6.20;;;;;;;13.32;72.05;95316.78;5033543;28;20303;-75
2022/05/06 05:30:13;;;;;;;11.52;6.15;;;;;;;13.40;71.39;95321.38;5033017;28;20595;-75
2022/05/06 05:32:41;;;;;;;12.30;6.22;;;;;;;13.63;71.36;95318.41;5046241;28;20230;-75
2022/05/06 05:35:09;;;;;;;11.07;6.82;;;;;;;13.86;70.27;95311.50;5032674;28;20281;-74
2022/05/06 05:37:36;;;;;;;9.98;6.50;;;;;;;14.34;69.20;95315.63;5033003;28;20678;-74
2022/05/06 05:40:03;;;;;;;16.00;6.32;;;;;;;14.67;67.46;95316.44;5031381;28;20247;-73
2022/05/06 05:42:30;;;;;;;9.82;6.38;;;;;;;14.58;66.92;95313.03;5031428;28;20291;-73
2022/05/06 05:50:29;;;;;;;11.70;7.85;;;;;;;15.23;63.40;95303.13;5028786;28;20341;-73
2022/05/06 05:52:56;;;;;;;7.90;6.82;;;;;;;15.84;62.60;95293.03;5031460;28;20226;-73
2022/05/06 05:55:23;;;;;;;10.10;6.90;;;;;;;16.22;61.40;95295.31;5030802;28;20188;-74
2022/05/06 05:57:50;;;;;;;9.02;7.05;;;;;;;17.38;58.52;95285.91;5030766;28;20205;-75
2022/05/06 06:00:17;;;;;;;9.63;6.85;;;;;;;18.10;55.80;95288.34;5031160;28;20280;-77
2022/05/06 06:02:46;;;;;;;11.10;7.50;;;;;;;18.31;54.90;95293.50;5031616;28;20196;-76
2022/05/06 06:05:12;;;;;;;9.90;6.70;;;;;;;18.73;53.77;95283.38;5031292;28;20197;-77
2022/05/06 06:07:40;;;;;;;8.77;7.07;;;;;;;19.99;50.42;95273.31;5030469;28;20221;-74
2022/05/06 06:10:08;;;;;;;8.55;7.15;;;;;;;19.58;50.29;95278.59;5030675;28;20201;-78
2022/05/06 06:12:35;;;;;;;9.25;6.60;;;;;;;19.95;50.22;95270.53;5030801;28;20590;-79
2022/05/06 06:15:02;;;;;;;13.60;6.38;;;;;;;20.56;48.38;95278.41;5031073;28;20219;-76
2022/05/06 06:17:30;;;;;;;6.82;5.70;;;;;;;20.42;48.27;95270.00;5030186;28;20750;-77
2022/05/06 06:19:58;;;;;;;7.35;5.40;;;;;;;20.21;47.42;95266.94;5030659;28;20200;-76
2022/05/06 06:22:25;;;;;;;7.45;4.82;;;;;;;19.95;49.59;95270.53;5031053;28;20203;-78
2022/05/06 06:24:52;;;;;;;6.43;4.90;;;;;;;20.72;47.62;95275.47;5031134;28;20196;-79
2022/05/06 06:27:19;;;;;;;7.65;5.25;;;;;;;19.80;48.33;95275.03;5031922;28;20773;-77
2022/05/06 06:29:49;;;;;;;11.32;6.03;;;;;;;19.31;49.48;95286.00;5031136;28;20347;-77
2022/05/06 06:32:16;;;;;;;12.02;7.75;;;;;;;18.63;51.42;95283.19;5028762;28;20274;-78
2022/05/06 06:34:43;;;;;;;9.70;6.85;;;;;;;18.52;52.63;95282.16;5030847;28;20731;-75
2022/05/06 06:37:12;;;;;;;12.73;6.45;;;;;;;18.53;52.46;95278.25;5028419;28;20628;-76
2022/05/06 06:39:38;;;;;;;10.55;6.97;;;;;;;18.71;51.66;95269.25;5030915;28;20254;-75
2022/05/06 06:42:06;;;;;;;12.20;7.13;;;;;;;18.13;52.59;95271.19;5030050;28;20565;-76
2022/05/06 06:44:33;;;;;;;14.27;7.20;;;;;;;18.29;52.68;95269.19;5031906;28;20248;-77
2022/05/06 06:47:00;;;;;;;12.88;7.30;;;;;;;17.26;55.00;95269.56;5030788;28;20667;-78
2022/05/06 06:49:27;;;;;;;13.82;6.60;;;;;;;16.47;56.80;95284.28;5030924;28;20606;-76
2022/05/06 06:51:53;;;;;;;10.95;6.82;;;;;;;16.45;57.10;95281.09;5031034;28;20235;-74
2022/05/06 06:54:22;;;;;;;16.35;8.70;;;;;;;16.64;57.59;95286.75;5031397;28;20710;-75
2022/05/06 06:56:48;;;;;;;14.95;8.07;;;;;;;17.11;56.21;95283.25;5031818;28;20207;-77
2022/05/06 06:59:15;;;;;;;12.45;7.65;;;;;;;17.07;56.06;95280.44;5030126;28;20196;-77
2022/05/06 07:01:42;;;;;;;14.88;8.18;;;;;;;16.82;56.02;95284.44;5030691;28;20201;-75
2022/05/06 07:04:09;;;;;;;12.85;7.75;;;;;;;17.16;55.14;95278.31;5031322;28;20192;-74
2022/05/06 07:12:07;;;;;;;18.50;8.70;;;;;;;17.42;54.60;95281.31;5030249;28;20582;-76
2022/05/06 07:14:35;;;;;;;12.57;7.88;;;;;;;17.47;54.38;95277.50;5030415;28;20243;-72
2022/05/06 07:17:05;;;;;;;11.13;7.60;;;;;;;18.51;51.31;95275.06;5028083;28;20218;-77
2022/05/06 07:19:32;;;;;;;11.65;7.50;;;;;;;18.17;51.65;95274.81;5029728;28;20207;-77
2022/05/06 07:21:59;;;;;;;11.80;7.13;;;;;;;18.07;52.39;95289.06;5029485;28;20200;-77
2022/05/06 07:24:27;;;;;;;13.07;7.10;;;;;;;18.39;51.67;95276.03;5030630;28;20238;-77
2022/05/06 07:26:55;;;;;;;10.43;6.80;;;;;;;19.56;51.04;95274.63;5030245;28;20188;-80
2022/05/06 07:29:22;;;;;;;8.98;5.40;;;;;;;18.56;50.29;95283.81;5029971;28;20203;-77
2022/05/06 07:31:53;;;;;;;8.15;5.55;;;;;;;19.14;50.01;95270.78;5030243;28;20224;-79
2022/05/06 07:34:20;;;;;;;8.10;5.25;;;;;;;19.28;48.73;95272.97;5031225;28;20220;-78
2022/05/06 07:36:47;;;;;;;10.55;5.63;;;;;;;19.30;48.46;95264.38;5030138;28;20739;-78
2022/05/06 07:39:16;;;;;;;8.00;6.25;;;;;;;18.68;50.21;95269.19;5030687;28;20664;-80
2022/05/06 07:42:10;;;;;;;7.43;5.35;;;;;;;18.71;50.21;95274.75;5030014;28;20211;-77
2022/05/06 07:44:38;;;;;;;8.40;5.18;;;;;;;19.42;49.67;95270.47;5036229;28;20246;-76
2022/05/06 07:47:05;;;;;;;6.57;5.00;;;;;;;18.99;50.13;95276.41;5030698;28;20224;-77
2022/05/06 07:49:32;;;;;;;9.77;4.75;;;;;;;20.06;47.55;95267.94;5030661;28;20693;-77
2022/05/06 07:51:59;;;;;;;6.65;4.78;;;;;;;19.85;47.54;95271.94;5030566;28;20232;-79
2022/05/06 07:54:25;;;;;;;8.15;4.57;;;;;;;20.28;48.03;95261.53;5030201;28;20200;-75
2022/05/06 07:56:52;;;;;;;5.72;4.50;;;;;;;20.32;46.94;95267.09;5030827;28;20220;-77
2022/05/06 07:59:20;;;;;;;6.35;4.85;;;;;;;19.63;48.37;95263.75;5030114;28;20204;-77
2022/05/06 08:04:36;;;;;;;7.13;4.68;;;;;;;21.17;45.53;95257.03;5029933;28;20200;-77
2022/05/06 08:07:04;;;;;;;10.38;4.80;;;;;;;19.76;49.01;95273.38;5030385;28;20228;-76
2022/05/06 08:09:31;;;;;;;6.50;5.00;;;;;;;19.83;48.87;95257.78;5030224;28;20208;-77
2022/05/06 08:11:58;;;;;;;8.90;5.18;;;;;;;19.39;49.89;95259.44;5029791;28;20664;-78
2022/05/06 08:14:26;;;;;;;4.70;3.63;;;;;;;20.41;48.26;95260.16;5030064;28;20546;-79
2022/05/06 08:16:53;;;;;;;5.47;4.47;;;;;;;21.02;46.36;95255.31;5029357;28;20201;-77
2022/05/06 08:19:20;;;;;;;6.93;4.53;;;;;;;21.10;45.99;95251.44;5030501;28;20204;-78
2022/05/06 08:21:48;;;;;;;5.18;4.43;;;;;;;20.54;47.01;95253.22;5030239;28;20204;-78
2022/05/06 08:24:15;;;;;;;7.13;4.60;;;;;;;20.09;48.65;95248.69;5030121;28;20209;-75
2022/05/06 08:26:42;;;;;;;4.68;4.18;;;;;;;19.52;49.34;95260.84;5030369;28;20212;-76
2022/05/06 08:29:08;;;;;;;6.82;4.28;;;;;;;19.28;50.38;95252.97;5042833;28;20306;-77
2022/05/06 08:31:37;;;;;;;5.90;3.95;;;;;;;19.15;50.49;95261.38;5029810;28;20200;-74
2022/05/06 08:34:07;;;;;;;5.35;4.15;;;;;;;19.12;51.77;95262.16;5030106;28;20294;-81
2022/05/06 08:36:35;;;;;;;5.60;4.10;;;;;;;19.74;49.58;95249.00;5016718;28;20248;-75
2022/05/06 08:39:02;;;;;;;7.43;3.97;;;;;;;20.44;48.53;95251.16;5028717;28;20200;-76
2022/05/06 08:41:30;;;;;;;9.30;4.40;;;;;;;19.64;50.00;95255.16;5032675;28;20237;-76
2022/05/06 08:43:58;;;;;;;5.45;4.70;;;;;;;20.21;49.13;95244.94;5033535;28;20230;-82
2022/05/06 08:52:01;;;;;;;7.90;5.18;;;;;;;19.95;50.00;95245.78;5029838;28;20241;-76
2022/05/06 08:54:29;;;;;;;6.30;4.38;;;;;;;20.03;48.79;95236.44;5033872;28;20207;-77
2022/05/06 08:56:58;;;;;;;5.38;4.57;;;;;;;19.78;49.80;95247.13;5033385;28;20213;-81
2022/05/06 08:59:25;;;;;;;6.32;4.50;;;;;;;19.73;49.86;95241.94;5032213;28;20282;-79
2022/05/06 09:01:52;;;;;;;5.80;4.78;;;;;;;19.88;49.99;95243.72;5031822;28;20199;-79
2022/05/06 09:04:23;;;;;;;8.32;4.32;;;;;;;20.37;48.49;95242.78;5032366;28;20268;-77
2022/05/06 09:06:50;;;;;;;5.75;3.70;;;;;;;20.73;48.06;95237.69;5032729;28;20242;-79
2022/05/06 09:09:21;;;;;;;6.57;4.15;;;;;;;19.75;48.94;95245.09;5032302;28;20192;-76
2022/05/06 09:17:30;;;;;;;4.60;3.97;;;;;;;20.13;46.91;95237.75;5033231;28;20608;-79
2022/05/06 09:19:58;;;;;;;5.93;4.15;;;;;;;19.96;47.26;95232.78;5033399;28;20660;-79
2022/05/06 09:22:28;;;;;;;5.65;3.90;;;;;;;20.00;47.05;95225.41;5033116;28;20212;-78
2022/05/06 09:24:55;;;;;;;11.80;7.90;;;;;;;20.75;45.24;95227.09;5032952;28;20204;-81
2022/05/06 09:27:23;;;;;;;4.38;3.85;;;;;;;20.31;46.29;95219.50;5033598;28;20207;-81
2022/05/06 09:29:51;;;;;;;5.22;3.78;;;;;;;19.90;47.24;95215.06;5032569;28;20192;-80
2022/05/06 09:32:24;;;;;;;7.32;3.85;;;;;;;19.59;47.82;95219.72;5031808;28;20590;-77
2022/05/06 09:34:53;;;;;;;5.32;4.15;;;;;;;19.60;48.15;95215.81;5031707;28;20945;-81
2022/05/06 09:37:38;;;;;;;5.57;4.30;;;;;;;19.64;48.61;95213.13;5032379;28;20196;-79
2022/05/06 09:40:10;;;;;;;5.30;3.78;;;;;;;19.47;47.58;95214.41;5031835;28;20188;-81
2022/05/06 09:42:39;;;;;;;6.30;3.80;;;;;;;19.55;47.47;95207.88;5029841;28;20193;-78
2022/05/06 09:45:07;;;;;;;6.38;3.72;;;;;;;19.59;46.78;95211.47;5027068;28;20228;-76
2022/05/06 09:47:38;;;;;;;5.53;4.25;;;;;;;19.22;47.33;95211.28;5031888;28;20208;-76
2022/05/06 09:50:06;;;;;;;15.23;9.38;;;;;;;19.13;48.24;95206.03;5023734;28;20208;-73
2022/05/06 09:52:33;;;;;;;4.75;4.13;;;;;;;19.66;47.66;95206.09;5031399;28;20232;-77
2022/05/06 09:55:03;;;;;;;4.85;3.90;;;;;;;19.60;46.91;95209.53;5031913;28;20228;-77
2022/05/06 09:57:32;;;;;;;21.33;13.13;;;;;;;19.49;47.06;95203.88;5031257;28;20742;-71
2022/05/06 09:59:58;;;;;;;5.88;4.15;;;;;;;19.51;46.40;95201.56;5031821;28;20224;-70
2022/05/06 10:02:25;;;;;;;8.35;4.50;;;;;;;19.74;46.70;95207.78;5032514;28;20290;-77
2022/05/06 10:04:52;;;;;;;5.47;4.13;;;;;;;19.43;46.51;95199.81;5030999;28;20726;-79
2022/05/06 10:07:20;;;;;;;12.82;4.35;;;;;;;19.99;46.56;95210.06;5030063;28;20204;-74
2022/05/06 10:09:57;;;;;;;3.67;3.08;;;;;;;20.03;45.07;95211.69;5028617;28;20208;-67
2022/05/06 10:12:28;;;;;;;4.75;3.92;;;;;;;19.47;45.10;95211.66;5011826;28;20231;-76
2022/05/06 10:14:55;;;;;;;106.30;72.38;;;;;;;19.79;46.39;95199.22;5027708;28;20219;-81
2022/05/06 10:17:52;;;;;;;4.90;3.92;;;;;;;19.92;45.25;95198.97;5031887;28;20208;-71
2022/05/06 10:20:59;;;;;;;5.82;3.60;;;;;;;19.78;44.85;95211.38;5007677;28;20201;-76
2022/05/06 10:23:50;;;;;;;3.95;3.20;;;;;;;19.78;44.42;95197.63;5029193;28;20640;-77
2022/05/06 10:26:39;;;;;;;6.57;3.80;;;;;;;19.78;44.89;95202.31;5031240;28;20197;-74
2022/05/06 10:35:10;;;;;;;4.60;3.85;;;;;;;19.60;44.03;95193.03;5030580;28;20258;-70
2022/05/06 10:37:38;;;;;;;4.80;3.72;;;;;;;19.72;44.31;95195.56;5018148;28;20682;-76
2022/05/06 10:40:29;;;;;;;5.68;3.58;;;;;;;19.97;43.71;95179.38;5030746;28;20559;-79
2022/05/06 10:42:56;;;;;;;9.13;3.67;;;;;;;20.04;43.61;95179.47;5030613;28;20628;-80
2022/05/06 10:45:26;;;;;;;5.28;3.17;;;;;;;20.00;42.84;95171.19;5028786;28;20232;-76
2022/05/06 10:47:53;;;;;;;4.10;3.05;;;;;;;20.35;42.85;95168.06;5029575;28;20638;-76
2022/05/06 10:50:23;;;;;;;5.47;3.50;;;;;;;20.62;42.52;95176.22;5029733;28;20535;-79
2022/05/06 10:52:51;;;;;;;5.05;2.97;;;;;;;20.27;42.24;95182.91;5030253;28;20819;-75
2022/05/06 10:55:20;;;;;;;5.75;3.53;;;;;;;20.30;41.65;95176.66;5043274;28;20666;-74
2022/05/06 10:57:58;;;;;;;3.25;2.95;;;;;;;20.44;41.97;95165.81;5030632;28;20204;-78
2022/05/06 11:00:29;;;;;;;3.40;3.10;;;;;;;20.38;40.53;95178.31;5029749;28;20200;-77
2022/05/06 11:02:58;;;;;;;4.68;3.00;;;;;;;20.33;41.07;95170.41;5029755;28;20571;-78
2022/05/06 11:05:26;;;;;;;3.92;3.00;;;;;;;20.42;41.62;95162.66;5030068;28;20291;-76
2022/05/06 11:07:58;;;;;;;3.67;2.80;;;;;;;20.78;41.68;95163.00;5029640;28;20234;-76
2022/05/06 11:10:28;;;;;;;5.15;3.00;;;;;;;20.79;40.93;95164.56;5029625;28;20219;-76
2022/05/06 11:12:57;;;;;;;3.90;3.05;;;;;;;20.64;41.08;95157.38;5027684;28;20225;-77
2022/05/06 11:15:29;;;;;;;5.05;2.97;;;;;;;21.16;40.92;95157.03;5028689;28;20232;-82
2022/05/06 11:17:58;;;;;;;3.22;2.92;;;;;;;21.06;40.67;95152.22;5027495;28;20196;-78
2022/05/06 11:20:27;;;;;;;3.90;3.22;;;;;;;20.82;40.51;95139.03;5017607;28;20214;-75
2022/05/06 11:22:59;;;;;;;3.83;2.90;;;;;;;21.20;39.99;95138.56;5025354;28;20247;-76
2022/05/06 11:25:29;;;;;;;3.67;2.70;;;;;;;21.02;39.53;95145.91;5022990;28;20185;-75
2022/05/06 11:27:58;;;;;;;3.65;2.80;;;;;;;20.81;39.52;95138.25;5020551;28;20208;-75
2022/05/06 11:30:27;;;;;;;4.47;2.67;;;;;;;21.01;39.16;95138.81;5020989;28;20227;-78
2022/05/06 11:32:56;;;;;;;3.25;2.70;;;;;;;20.82;38.58;95142.59;5027651;28;20261;-77
2022/05/06 11:35:42;;;;;;;4.03;2.78;;;;;;;21.20;38.95;95130.31;5025881;28;20220;-78
2022/05/06 11:38:09;;;;;;;4.68;2.60;;;;;;;20.76;38.59;95135.84;5010569;28;20197;-77
2022/05/06 11:40:38;;;;;;;4.40;2.63;;;;;;;20.61;39.77;95120.38;5024068;28;20197;-72
2022/05/06 11:43:18;;;;;;;3.63;2.63;;;;;;;20.72;39.09;95134.22;5033742;28;20199;-72
2022/05/06 11:48:44;;;;;;;4.40;3.28;;;;;;;20.36;38.63;95119.34;5008701;28;20786;-73
2022/05/06 11:51:13;;;;;;;5.68;2.65;;;;;;;20.43;38.60;95130.41;5037195;28;20625;-75
2022/05/06 11:53:41;;;;;;;3.75;2.80;;;;;;;20.77;38.38;95122.88;5024939;28;20359;-74
2022/05/06 11:56:09;;;;;;;2.75;2.47;;;;;;;21.02;37.83;95118.34;5025065;28;20212;-81
2022/05/06 11:58:38;;;;;;;6.15;2.70;;;;;;;20.53;37.18;95119.50;5030159;28;20212;-73
2022/05/06 12:01:07;;;;;;;2.67;2.28;;;;;;;20.84;37.71;95118.22;5035847;28;20226;-73
2022/05/06 12:03:37;;;;;;;5.05;2.70;;;;;;;21.41;36.60;95113.13;5026085;28;20232;-75
2022/05/06 12:06:08;;;;;;;3.13;2.03;;;;;;;21.74;35.20;95109.34;5026346;28;20205;-79
2022/05/06 12:08:37;;;;;;;3.67;2.72;;;;;;;21.09;35.76;95110.13;5017296;28;20214;-75
2022/05/06 12:11:06;;;;;;;2.40;2.20;;;;;;;20.52;35.84;95112.41;5018833;28;20319;-74
2022/05/06 12:13:41;;;;;;;4.53;2.22;;;;;;;20.90;36.51;95110.41;5030077;28;20262;-72
2022/05/06 12:16:14;;;;;;;2.30;2.08;;;;;;;20.59;36.37;95106.19;5045036;28;20264;-76
2022/05/06 12:18:54;;;;;;;2.25;1.95;;;;;;;20.89;36.07;95108.81;5048543;28;20621;-69
2022/05/06 12:21:24;;;;;;;3.30;2.38;;;;;;;21.07;36.05;95093.19;5033213;28;20600;-82
2022/05/06 12:23:56;;;;;;;2.63;1.92;;;;;;;21.16;34.69;95079.88;5032077;28;20209;-77